sensor_id;sensor_type;location;lat;lon;timestamp;temperature;humidity
2751;DHT22;1383;48.362;10.908;2023-12-29T00:02:26;8.90;51.30
2751;DHT22;1383;48.362;10.908;2023-12-29T00:04:53;8.90;51.20
2751;DHT22;1383;48.362;10.908;2023-12-29T00:07:20;8.90;51.30
2751;DHT22;1383;48.362;10.908;2023-12-29T00:09:48;8.80;51.20
2751;DHT22;1383;48.362;10.908;2023-12-29T00:12:15;8.80;51.30
2751;DHT22;1383;48.362;10.908;2023-12-29T00:14:42;8.70;51.50
2751;DHT22;1383;48.362;10.908;2023-12-29T00:17:10;8.70;51.60
2751;DHT22;1383;48.362;10.908;2023-12-29T00:19:38;8.60;51.70
2751;DHT22;1383;48.362;10.908;2023-12-29T00:22:05;8.50;51.70
2751;DHT22;1383;48.362;10.908;2023-12-29T00:24:33;8.50;51.80
2751;DHT22;1383;48.362;10.908;2023-12-29T00:27:00;8.40;52.20
2751;DHT22;1383;48.362;10.908;2023-12-29T00:29:27;8.40;52.40
2751;DHT22;1383;48.362;10.908;2023-12-29T00:31:59;8.40;52.70
2751;DHT22;1383;48.362;10.908;2023-12-29T00:34:30;8.30;53.20
2751;DHT22;1383;48.362;10.908;2023-12-29T00:36:58;8.30;53.70
2751;DHT22;1383;48.362;10.908;2023-12-29T00:39:25;8.20;53.90
2751;DHT22;1383;48.362;10.908;2023-12-29T00:41:57;8.10;54.30
2751;DHT22;1383;48.362;10.908;2023-12-29T00:44:23;8.10;55.10
2751;DHT22;1383;48.362;10.908;2023-12-29T00:46:50;8.20;56.40
2751;DHT22;1383;48.362;10.908;2023-12-29T00:49:17;8.10;56.40
2751;DHT22;1383;48.362;10.908;2023-12-29T00:51:44;8.10;56.00
2751;DHT22;1383;48.362;10.908;2023-12-29T00:54:11;8.10;56.20
2751;DHT22;1383;48.362;10.908;2023-12-29T00:56:38;8.10;56.60
2751;DHT22;1383;48.362;10.908;2023-12-29T00:59:05;8.10;56.70
2751;DHT22;1383;48.362;10.908;2023-12-29T01:01:34;8.10;56.80
2751;DHT22;1383;48.362;10.908;2023-12-29T01:04:02;8.10;56.30
2751;DHT22;1383;48.362;10.908;2023-12-29T01:06:29;8.10;56.30
2751;DHT22;1383;48.362;10.908;2023-12-29T01:08:56;8.00;56.50
2751;DHT22;1383;48.362;10.908;2023-12-29T01:11:23;8.00;56.90
2751;DHT22;1383;48.362;10.908;2023-12-29T01:13:50;8.10;57.30
2751;DHT22;1383;48.362;10.908;2023-12-29T01:16:17;8.00;57.50
2751;DHT22;1383;48.362;10.908;2023-12-29T01:18:44;8.00;57.80
2751;DHT22;1383;48.362;10.908;2023-12-29T01:21:11;8.00;58.00
2751;DHT22;1383;48.362;10.908;2023-12-29T01:23:38;8.00;58.10
2751;DHT22;1383;48.362;10.908;2023-12-29T01:26:05;8.00;58.40
2751;DHT22;1383;48.362;10.908;2023-12-29T01:28:32;8.00;58.70
2751;DHT22;1383;48.362;10.908;2023-12-29T01:30:59;8.00;59.00
2751;DHT22;1383;48.362;10.908;2023-12-29T01:33:26;7.90;59.50
2751;DHT22;1383;48.362;10.908;2023-12-29T01:35:53;8.00;59.50
2751;DHT22;1383;48.362;10.908;2023-12-29T01:38:19;8.00;59.40
2751;DHT22;1383;48.362;10.908;2023-12-29T01:40:47;8.00;59.20
2751;DHT22;1383;48.362;10.908;2023-12-29T01:43:14;8.10;58.80
2751;DHT22;1383;48.362;10.908;2023-12-29T01:45:41;8.00;58.70
2751;DHT22;1383;48.362;10.908;2023-12-29T01:48:22;8.10;58.60
2751;DHT22;1383;48.362;10.908;2023-12-29T01:50:50;8.10;59.30
2751;DHT22;1383;48.362;10.908;2023-12-29T01:53:18;8.00;58.50
2751;DHT22;1383;48.362;10.908;2023-12-29T01:55:56;7.90;58.60
2751;DHT22;1383;48.362;10.908;2023-12-29T01:58:24;7.90;58.50
2751;DHT22;1383;48.362;10.908;2023-12-29T02:00:52;7.90;58.60
2751;DHT22;1383;48.362;10.908;2023-12-29T02:03:19;7.90;58.60
2751;DHT22;1383;48.362;10.908;2023-12-29T02:05:46;7.80;58.90
2751;DHT22;1383;48.362;10.908;2023-12-29T02:08:13;7.80;58.80
2751;DHT22;1383;48.362;10.908;2023-12-29T02:10:40;7.80;58.80
2751;DHT22;1383;48.362;10.908;2023-12-29T02:13:07;7.70;58.60
2751;DHT22;1383;48.362;10.908;2023-12-29T02:15:34;7.70;58.60
2751;DHT22;1383;48.362;10.908;2023-12-29T02:18:03;7.70;58.30
2751;DHT22;1383;48.362;10.908;2023-12-29T02:20:33;7.70;58.00
2751;DHT22;1383;48.362;10.908;2023-12-29T02:22:59;7.70;57.80
2751;DHT22;1383;48.362;10.908;2023-12-29T02:25:27;7.80;57.60
2751;DHT22;1383;48.362;10.908;2023-12-29T02:28:07;7.90;57.10
2751;DHT22;1383;48.362;10.908;2023-12-29T02:30:49;8.00;55.90
2751;DHT22;1383;48.362;10.908;2023-12-29T02:33:20;8.10;55.70
2751;DHT22;1383;48.362;10.908;2023-12-29T02:35:50;8.10;55.00
2751;DHT22;1383;48.362;10.908;2023-12-29T02:38:18;8.20;54.90
2751;DHT22;1383;48.362;10.908;2023-12-29T02:40:46;8.20;54.30
2751;DHT22;1383;48.362;10.908;2023-12-29T02:43:13;8.20;54.10
2751;DHT22;1383;48.362;10.908;2023-12-29T02:45:40;8.20;53.40
2751;DHT22;1383;48.362;10.908;2023-12-29T02:48:09;8.20;53.30
2751;DHT22;1383;48.362;10.908;2023-12-29T02:50:36;8.20;53.00
2751;DHT22;1383;48.362;10.908;2023-12-29T02:53:03;8.20;52.70
2751;DHT22;1383;48.362;10.908;2023-12-29T02:55:31;8.20;52.60
2751;DHT22;1383;48.362;10.908;2023-12-29T02:57:58;8.20;52.50
2751;DHT22;1383;48.362;10.908;2023-12-29T03:00:25;8.20;52.40
2751;DHT22;1383;48.362;10.908;2023-12-29T03:02:52;8.10;52.40
2751;DHT22;1383;48.362;10.908;2023-12-29T03:05:19;8.10;52.60
2751;DHT22;1383;48.362;10.908;2023-12-29T03:07:46;8.10;52.50
2751;DHT22;1383;48.362;10.908;2023-12-29T03:10:12;8.10;52.30
2751;DHT22;1383;48.362;10.908;2023-12-29T03:12:40;8.00;52.30
2751;DHT22;1383;48.362;10.908;2023-12-29T03:15:07;8.00;52.30
2751;DHT22;1383;48.362;10.908;2023-12-29T03:17:34;8.00;52.40
2751;DHT22;1383;48.362;10.908;2023-12-29T03:20:05;8.00;52.30
2751;DHT22;1383;48.362;10.908;2023-12-29T03:22:32;8.10;52.50
2751;DHT22;1383;48.362;10.908;2023-12-29T03:24:59;8.10;52.10
2751;DHT22;1383;48.362;10.908;2023-12-29T03:27:26;8.10;51.90
2751;DHT22;1383;48.362;10.908;2023-12-29T03:29:53;8.20;51.50
2751;DHT22;1383;48.362;10.908;2023-12-29T03:32:20;8.30;51.20
2751;DHT22;1383;48.362;10.908;2023-12-29T03:34:46;8.40;50.80
2751;DHT22;1383;48.362;10.908;2023-12-29T03:37:14;8.40;50.70
2751;DHT22;1383;48.362;10.908;2023-12-29T03:39:40;8.50;50.40
2751;DHT22;1383;48.362;10.908;2023-12-29T03:42:08;8.50;49.90
2751;DHT22;1383;48.362;10.908;2023-12-29T03:44:35;8.60;49.60
2751;DHT22;1383;48.362;10.908;2023-12-29T03:47:02;8.70;49.60
2751;DHT22;1383;48.362;10.908;2023-12-29T03:49:29;8.70;49.50
2751;DHT22;1383;48.362;10.908;2023-12-29T03:51:56;8.70;49.20
2751;DHT22;1383;48.362;10.908;2023-12-29T03:54:23;8.80;49.30
2751;DHT22;1383;48.362;10.908;2023-12-29T03:56:50;8.80;49.00
2751;DHT22;1383;48.362;10.908;2023-12-29T03:59:16;8.80;48.70
2751;DHT22;1383;48.362;10.908;2023-12-29T04:01:43;8.80;48.10
2751;DHT22;1383;48.362;10.908;2023-12-29T04:04:10;8.80;47.80
2751;DHT22;1383;48.362;10.908;2023-12-29T04:06:37;8.80;47.50
2751;DHT22;1383;48.362;10.908;2023-12-29T04:09:04;8.80;47.50
2751;DHT22;1383;48.362;10.908;2023-12-29T04:11:31;8.80;47.40
2751;DHT22;1383;48.362;10.908;2023-12-29T04:13:58;8.90;46.90
2751;DHT22;1383;48.362;10.908;2023-12-29T04:16:25;8.90;46.80
2751;DHT22;1383;48.362;10.908;2023-12-29T04:18:52;8.90;46.60
2751;DHT22;1383;48.362;10.908;2023-12-29T04:21:19;8.90;46.10
2751;DHT22;1383;48.362;10.908;2023-12-29T04:23:46;8.90;46.10
2751;DHT22;1383;48.362;10.908;2023-12-29T04:26:13;8.90;45.90
2751;DHT22;1383;48.362;10.908;2023-12-29T04:28:43;8.80;46.00
2751;DHT22;1383;48.362;10.908;2023-12-29T04:31:09;8.80;46.10
2751;DHT22;1383;48.362;10.908;2023-12-29T04:33:36;8.80;46.10
2751;DHT22;1383;48.362;10.908;2023-12-29T04:36:03;8.80;46.10
2751;DHT22;1383;48.362;10.908;2023-12-29T04:38:30;8.90;45.70
2751;DHT22;1383;48.362;10.908;2023-12-29T04:40:57;8.90;45.50
2751;DHT22;1383;48.362;10.908;2023-12-29T04:43:24;8.90;45.20
2751;DHT22;1383;48.362;10.908;2023-12-29T04:45:51;8.90;45.40
2751;DHT22;1383;48.362;10.908;2023-12-29T04:48:18;8.90;45.20
2751;DHT22;1383;48.362;10.908;2023-12-29T04:50:45;8.90;45.10
2751;DHT22;1383;48.362;10.908;2023-12-29T04:53:11;8.90;45.10
2751;DHT22;1383;48.362;10.908;2023-12-29T04:55:38;9.00;45.10
2751;DHT22;1383;48.362;10.908;2023-12-29T04:58:05;9.00;44.70
2751;DHT22;1383;48.362;10.908;2023-12-29T05:00:32;9.00;44.60
2751;DHT22;1383;48.362;10.908;2023-12-29T05:03:00;9.00;44.60
2751;DHT22;1383;48.362;10.908;2023-12-29T05:05:26;8.90;44.60
2751;DHT22;1383;48.362;10.908;2023-12-29T05:07:53;9.00;44.80
2751;DHT22;1383;48.362;10.908;2023-12-29T05:10:20;9.00;44.70
2751;DHT22;1383;48.362;10.908;2023-12-29T05:12:47;9.00;44.90
2751;DHT22;1383;48.362;10.908;2023-12-29T05:15:14;9.00;45.20
2751;DHT22;1383;48.362;10.908;2023-12-29T05:17:41;9.00;45.30
2751;DHT22;1383;48.362;10.908;2023-12-29T05:20:08;8.90;45.50
2751;DHT22;1383;48.362;10.908;2023-12-29T05:22:36;9.00;45.60
2751;DHT22;1383;48.362;10.908;2023-12-29T05:25:03;9.00;45.70
2751;DHT22;1383;48.362;10.908;2023-12-29T05:27:30;9.00;45.50
2751;DHT22;1383;48.362;10.908;2023-12-29T05:29:59;9.10;45.50
2751;DHT22;1383;48.362;10.908;2023-12-29T05:32:26;9.10;45.60
2751;DHT22;1383;48.362;10.908;2023-12-29T05:34:53;9.10;45.50
2751;DHT22;1383;48.362;10.908;2023-12-29T05:37:20;9.20;45.40
2751;DHT22;1383;48.362;10.908;2023-12-29T05:39:47;9.30;45.40
2751;DHT22;1383;48.362;10.908;2023-12-29T05:42:13;9.30;45.30
2751;DHT22;1383;48.362;10.908;2023-12-29T05:44:43;9.30;45.20
2751;DHT22;1383;48.362;10.908;2023-12-29T05:47:11;9.40;45.00
2751;DHT22;1383;48.362;10.908;2023-12-29T05:49:38;9.40;45.10
2751;DHT22;1383;48.362;10.908;2023-12-29T05:52:07;9.50;45.00
2751;DHT22;1383;48.362;10.908;2023-12-29T05:54:34;9.50;44.80
2751;DHT22;1383;48.362;10.908;2023-12-29T05:57:01;9.50;44.70
2751;DHT22;1383;48.362;10.908;2023-12-29T05:59:28;9.50;44.60
2751;DHT22;1383;48.362;10.908;2023-12-29T06:01:55;9.50;44.60
2751;DHT22;1383;48.362;10.908;2023-12-29T06:04:23;9.50;44.60
2751;DHT22;1383;48.362;10.908;2023-12-29T06:06:50;9.50;44.70
2751;DHT22;1383;48.362;10.908;2023-12-29T06:09:17;9.50;44.70
2751;DHT22;1383;48.362;10.908;2023-12-29T06:11:44;9.60;44.50
2751;DHT22;1383;48.362;10.908;2023-12-29T06:14:11;9.60;44.50
2751;DHT22;1383;48.362;10.908;2023-12-29T06:16:38;9.60;44.60
2751;DHT22;1383;48.362;10.908;2023-12-29T06:19:05;9.60;44.60
2751;DHT22;1383;48.362;10.908;2023-12-29T06:21:32;9.50;44.60
2751;DHT22;1383;48.362;10.908;2023-12-29T06:23:59;9.50;44.80
2751;DHT22;1383;48.362;10.908;2023-12-29T06:26:26;9.50;45.00
2751;DHT22;1383;48.362;10.908;2023-12-29T06:28:53;9.50;45.20
2751;DHT22;1383;48.362;10.908;2023-12-29T06:31:20;9.50;45.40
2751;DHT22;1383;48.362;10.908;2023-12-29T06:33:47;9.40;45.60
2751;DHT22;1383;48.362;10.908;2023-12-29T06:36:14;9.40;45.60
2751;DHT22;1383;48.362;10.908;2023-12-29T06:38:41;9.50;45.80
2751;DHT22;1383;48.362;10.908;2023-12-29T06:41:09;9.50;45.40
2751;DHT22;1383;48.362;10.908;2023-12-29T06:43:36;9.50;45.50
2751;DHT22;1383;48.362;10.908;2023-12-29T06:46:03;9.50;45.80
2751;DHT22;1383;48.362;10.908;2023-12-29T06:48:31;9.50;45.90
2751;DHT22;1383;48.362;10.908;2023-12-29T06:50:58;9.50;46.10
2751;DHT22;1383;48.362;10.908;2023-12-29T06:53:25;9.40;46.50
2751;DHT22;1383;48.362;10.908;2023-12-29T06:55:52;9.50;46.60
2751;DHT22;1383;48.362;10.908;2023-12-29T06:58:19;9.50;46.80
2751;DHT22;1383;48.362;10.908;2023-12-29T07:00:46;9.50;47.20
2751;DHT22;1383;48.362;10.908;2023-12-29T07:03:13;9.50;47.30
2751;DHT22;1383;48.362;10.908;2023-12-29T07:05:41;9.50;47.50
2751;DHT22;1383;48.362;10.908;2023-12-29T07:08:12;9.50;47.80
2751;DHT22;1383;48.362;10.908;2023-12-29T07:10:39;9.50;47.90
2751;DHT22;1383;48.362;10.908;2023-12-29T07:13:07;9.50;48.00
2751;DHT22;1383;48.362;10.908;2023-12-29T07:15:34;9.40;48.20
2751;DHT22;1383;48.362;10.908;2023-12-29T07:18:00;9.40;48.40
2751;DHT22;1383;48.362;10.908;2023-12-29T07:20:28;9.40;48.70
2751;DHT22;1383;48.362;10.908;2023-12-29T07:22:55;9.40;49.10
2751;DHT22;1383;48.362;10.908;2023-12-29T07:25:22;9.40;49.30
2751;DHT22;1383;48.362;10.908;2023-12-29T07:28:06;9.50;49.70
2751;DHT22;1383;48.362;10.908;2023-12-29T07:30:34;9.40;50.00
2751;DHT22;1383;48.362;10.908;2023-12-29T07:33:01;9.40;50.50
2751;DHT22;1383;48.362;10.908;2023-12-29T07:35:29;9.40;50.80
2751;DHT22;1383;48.362;10.908;2023-12-29T07:37:56;9.40;51.50
2751;DHT22;1383;48.362;10.908;2023-12-29T07:40:24;9.40;52.00
2751;DHT22;1383;48.362;10.908;2023-12-29T07:42:51;9.40;52.50
2751;DHT22;1383;48.362;10.908;2023-12-29T07:45:18;9.30;52.70
2751;DHT22;1383;48.362;10.908;2023-12-29T07:47:45;9.30;53.00
2751;DHT22;1383;48.362;10.908;2023-12-29T07:50:12;9.30;53.10
2751;DHT22;1383;48.362;10.908;2023-12-29T07:52:38;9.30;54.00
2751;DHT22;1383;48.362;10.908;2023-12-29T07:55:05;9.30;53.50
2751;DHT22;1383;48.362;10.908;2023-12-29T07:57:32;9.30;53.70
2751;DHT22;1383;48.362;10.908;2023-12-29T08:00:00;9.30;53.70
2751;DHT22;1383;48.362;10.908;2023-12-29T08:02:27;9.30;54.10
2751;DHT22;1383;48.362;10.908;2023-12-29T08:04:54;9.30;54.30
2751;DHT22;1383;48.362;10.908;2023-12-29T08:07:21;9.30;54.40
2751;DHT22;1383;48.362;10.908;2023-12-29T08:09:48;9.40;54.80
2751;DHT22;1383;48.362;10.908;2023-12-29T08:12:15;9.40;54.80
2751;DHT22;1383;48.362;10.908;2023-12-29T08:14:42;9.40;54.90
2751;DHT22;1383;48.362;10.908;2023-12-29T08:17:09;9.50;55.00
2751;DHT22;1383;48.362;10.908;2023-12-29T08:19:36;9.50;54.80
2751;DHT22;1383;48.362;10.908;2023-12-29T08:22:03;9.60;54.30
2751;DHT22;1383;48.362;10.908;2023-12-29T08:24:30;9.70;54.10
2751;DHT22;1383;48.362;10.908;2023-12-29T08:26:57;9.90;53.70
2751;DHT22;1383;48.362;10.908;2023-12-29T08:29:24;10.00;52.00
2751;DHT22;1383;48.362;10.908;2023-12-29T08:31:52;10.00;51.80
2751;DHT22;1383;48.362;10.908;2023-12-29T08:34:19;10.00;51.80
2751;DHT22;1383;48.362;10.908;2023-12-29T08:36:47;10.00;52.00
2751;DHT22;1383;48.362;10.908;2023-12-29T08:39:13;10.10;52.10
2751;DHT22;1383;48.362;10.908;2023-12-29T08:41:41;10.20;52.00
2751;DHT22;1383;48.362;10.908;2023-12-29T08:44:08;10.30;51.40
2751;DHT22;1383;48.362;10.908;2023-12-29T08:46:35;10.50;51.10
2751;DHT22;1383;48.362;10.908;2023-12-29T08:49:02;10.60;50.60
2751;DHT22;1383;48.362;10.908;2023-12-29T08:51:29;10.70;50.40
2751;DHT22;1383;48.362;10.908;2023-12-29T08:53:56;10.70;50.20
2751;DHT22;1383;48.362;10.908;2023-12-29T08:56:25;10.70;49.90
2751;DHT22;1383;48.362;10.908;2023-12-29T08:58:54;10.90;49.40
2751;DHT22;1383;48.362;10.908;2023-12-29T09:01:23;10.90;49.30
2751;DHT22;1383;48.362;10.908;2023-12-29T09:04:34;10.90;49.10
2751;DHT22;1383;48.362;10.908;2023-12-29T09:06:53;10.90;49.20
2751;DHT22;1383;48.362;10.908;2023-12-29T09:09:21;10.80;49.40
2751;DHT22;1383;48.362;10.908;2023-12-29T09:11:51;10.70;49.80
2751;DHT22;1383;48.362;10.908;2023-12-29T09:14:23;10.70;50.20
2751;DHT22;1383;48.362;10.908;2023-12-29T09:17:06;10.70;50.60
2751;DHT22;1383;48.362;10.908;2023-12-29T09:20:00;10.80;50.60
2751;DHT22;1383;48.362;10.908;2023-12-29T09:23:35;10.80;50.60
2751;DHT22;1383;48.362;10.908;2023-12-29T09:26:33;10.90;50.40
2751;DHT22;1383;48.362;10.908;2023-12-29T09:29:08;10.90;50.50
2751;DHT22;1383;48.362;10.908;2023-12-29T09:31:48;11.00;50.50
2751;DHT22;1383;48.362;10.908;2023-12-29T09:34:18;11.00;50.30
2751;DHT22;1383;48.362;10.908;2023-12-29T09:36:45;11.00;50.60
2751;DHT22;1383;48.362;10.908;2023-12-29T09:39:12;11.00;50.70
2751;DHT22;1383;48.362;10.908;2023-12-29T09:41:43;11.00;50.60
2751;DHT22;1383;48.362;10.908;2023-12-29T09:44:14;11.00;50.50
2751;DHT22;1383;48.362;10.908;2023-12-29T09:46:42;11.10;50.60
2751;DHT22;1383;48.362;10.908;2023-12-29T09:49:09;11.10;50.60
2751;DHT22;1383;48.362;10.908;2023-12-29T09:51:37;11.10;50.60
2751;DHT22;1383;48.362;10.908;2023-12-29T09:54:04;11.20;50.50
2751;DHT22;1383;48.362;10.908;2023-12-29T09:56:32;11.10;50.90
2751;DHT22;1383;48.362;10.908;2023-12-29T09:58:59;11.20;50.80
2751;DHT22;1383;48.362;10.908;2023-12-29T10:01:27;11.30;50.90
2751;DHT22;1383;48.362;10.908;2023-12-29T10:03:57;11.30;50.70
2751;DHT22;1383;48.362;10.908;2023-12-29T10:06:24;11.40;50.50
2751;DHT22;1383;48.362;10.908;2023-12-29T10:08:53;11.50;51.10
2751;DHT22;1383;48.362;10.908;2023-12-29T10:11:21;11.60;50.40
2751;DHT22;1383;48.362;10.908;2023-12-29T10:13:50;11.70;49.60
2751;DHT22;1383;48.362;10.908;2023-12-29T10:16:28;11.80;49.50
2751;DHT22;1383;48.362;10.908;2023-12-29T10:22:00;11.80;49.70
2751;DHT22;1383;48.362;10.908;2023-12-29T10:24:31;11.70;49.70
2751;DHT22;1383;48.362;10.908;2023-12-29T10:26:58;11.80;49.70
2751;DHT22;1383;48.362;10.908;2023-12-29T10:29:27;11.70;49.60
2751;DHT22;1383;48.362;10.908;2023-12-29T10:31:54;11.70;50.00
2751;DHT22;1383;48.362;10.908;2023-12-29T10:34:23;11.80;50.00
2751;DHT22;1383;48.362;10.908;2023-12-29T10:36:56;11.80;49.60
2751;DHT22;1383;48.362;10.908;2023-12-29T10:39:25;11.80;49.20
2751;DHT22;1383;48.362;10.908;2023-12-29T10:42:05;11.60;49.60
2751;DHT22;1383;48.362;10.908;2023-12-29T10:44:34;11.70;49.70
2751;DHT22;1383;48.362;10.908;2023-12-29T10:47:11;11.70;49.50
2751;DHT22;1383;48.362;10.908;2023-12-29T10:49:39;11.70;49.80
2751;DHT22;1383;48.362;10.908;2023-12-29T10:52:14;11.70;50.00
2751;DHT22;1383;48.362;10.908;2023-12-29T10:54:43;11.80;49.50
2751;DHT22;1383;48.362;10.908;2023-12-29T10:57:13;11.70;49.50
2751;DHT22;1383;48.362;10.908;2023-12-29T10:59:40;11.70;49.60
2751;DHT22;1383;48.362;10.908;2023-12-29T11:02:11;11.80;49.70
2751;DHT22;1383;48.362;10.908;2023-12-29T11:04:41;11.80;49.30
2751;DHT22;1383;48.362;10.908;2023-12-29T11:07:12;11.90;49.20
2751;DHT22;1383;48.362;10.908;2023-12-29T11:09:39;11.90;49.20
2751;DHT22;1383;48.362;10.908;2023-12-29T11:12:11;11.90;49.00
2751;DHT22;1383;48.362;10.908;2023-12-29T11:14:41;12.00;49.20
2751;DHT22;1383;48.362;10.908;2023-12-29T11:17:14;11.90;49.10
2751;DHT22;1383;48.362;10.908;2023-12-29T11:19:44;11.90;49.00
2751;DHT22;1383;48.362;10.908;2023-12-29T11:22:13;12.00;49.20
2751;DHT22;1383;48.362;10.908;2023-12-29T11:24:41;12.10;48.50
2751;DHT22;1383;48.362;10.908;2023-12-29T11:27:10;12.10;48.60
2751;DHT22;1383;48.362;10.908;2023-12-29T11:29:40;12.10;48.80
2751;DHT22;1383;48.362;10.908;2023-12-29T11:32:14;12.10;48.60
2751;DHT22;1383;48.362;10.908;2023-12-29T11:34:49;12.10;49.40
2751;DHT22;1383;48.362;10.908;2023-12-29T11:40:19;12.00;49.00
2751;DHT22;1383;48.362;10.908;2023-12-29T11:42:49;11.90;49.00
2751;DHT22;1383;48.362;10.908;2023-12-29T11:45:28;12.00;49.40
2751;DHT22;1383;48.362;10.908;2023-12-29T11:47:55;11.90;49.30
2751;DHT22;1383;48.362;10.908;2023-12-29T11:50:34;12.00;49.40
2751;DHT22;1383;48.362;10.908;2023-12-29T11:53:03;12.00;49.40
2751;DHT22;1383;48.362;10.908;2023-12-29T11:55:34;12.10;49.20
2751;DHT22;1383;48.362;10.908;2023-12-29T11:58:03;12.00;49.00
2751;DHT22;1383;48.362;10.908;2023-12-29T12:00:47;12.00;49.40
2751;DHT22;1383;48.362;10.908;2023-12-29T12:03:28;11.90;48.80
2751;DHT22;1383;48.362;10.908;2023-12-29T12:05:56;11.90;49.20
2751;DHT22;1383;48.362;10.908;2023-12-29T12:08:33;11.90;49.10
2751;DHT22;1383;48.362;10.908;2023-12-29T12:14:01;11.80;49.20
2751;DHT22;1383;48.362;10.908;2023-12-29T12:16:48;11.90;49.50
2751;DHT22;1383;48.362;10.908;2023-12-29T12:19:16;11.70;49.80
2751;DHT22;1383;48.362;10.908;2023-12-29T12:21:46;11.80;50.10
2751;DHT22;1383;48.362;10.908;2023-12-29T12:24:18;11.80;50.20
2751;DHT22;1383;48.362;10.908;2023-12-29T12:26:46;11.70;50.60
2751;DHT22;1383;48.362;10.908;2023-12-29T12:29:14;11.70;50.70
2751;DHT22;1383;48.362;10.908;2023-12-29T12:31:56;11.70;50.40
2751;DHT22;1383;48.362;10.908;2023-12-29T12:34:24;11.70;50.50
2751;DHT22;1383;48.362;10.908;2023-12-29T12:36:52;11.70;50.80
2751;DHT22;1383;48.362;10.908;2023-12-29T12:39:20;11.70;50.70
2751;DHT22;1383;48.362;10.908;2023-12-29T12:41:47;11.70;50.80
2751;DHT22;1383;48.362;10.908;2023-12-29T12:44:15;11.70;50.90
2751;DHT22;1383;48.362;10.908;2023-12-29T12:46:51;11.80;50.80
2751;DHT22;1383;48.362;10.908;2023-12-29T12:49:23;11.80;50.70
2751;DHT22;1383;48.362;10.908;2023-12-29T12:51:52;11.90;50.60
2751;DHT22;1383;48.362;10.908;2023-12-29T12:54:21;11.90;50.10
2751;DHT22;1383;48.362;10.908;2023-12-29T12:56:48;11.90;50.10
2751;DHT22;1383;48.362;10.908;2023-12-29T12:59:15;11.90;50.30
2751;DHT22;1383;48.362;10.908;2023-12-29T13:01:46;11.90;50.10
2751;DHT22;1383;48.362;10.908;2023-12-29T13:04:14;12.00;50.20
2751;DHT22;1383;48.362;10.908;2023-12-29T13:06:43;12.10;50.00
2751;DHT22;1383;48.362;10.908;2023-12-29T13:09:17;12.10;49.60
2751;DHT22;1383;48.362;10.908;2023-12-29T13:11:46;12.00;49.50
2751;DHT22;1383;48.362;10.908;2023-12-29T13:14:20;12.10;49.40
2751;DHT22;1383;48.362;10.908;2023-12-29T13:16:48;12.10;50.10
2751;DHT22;1383;48.362;10.908;2023-12-29T13:19:21;12.00;49.00
2751;DHT22;1383;48.362;10.908;2023-12-29T13:21:54;12.00;49.40
2751;DHT22;1383;48.362;10.908;2023-12-29T13:24:23;12.00;49.40
2751;DHT22;1383;48.362;10.908;2023-12-29T13:26:57;12.00;49.30
2751;DHT22;1383;48.362;10.908;2023-12-29T13:29:25;12.00;49.40
2751;DHT22;1383;48.362;10.908;2023-12-29T13:31:54;12.00;49.30
2751;DHT22;1383;48.362;10.908;2023-12-29T13:34:32;12.00;48.70
2751;DHT22;1383;48.362;10.908;2023-12-29T13:37:07;12.00;48.90
2751;DHT22;1383;48.362;10.908;2023-12-29T13:39:42;12.00;48.40
2751;DHT22;1383;48.362;10.908;2023-12-29T13:42:12;11.90;47.70
2751;DHT22;1383;48.362;10.908;2023-12-29T13:44:42;11.90;47.70
2751;DHT22;1383;48.362;10.908;2023-12-29T13:47:10;11.90;47.90
2751;DHT22;1383;48.362;10.908;2023-12-29T13:49:38;11.80;47.90
2751;DHT22;1383;48.362;10.908;2023-12-29T13:52:05;11.90;47.80
2751;DHT22;1383;48.362;10.908;2023-12-29T13:54:42;11.90;47.60
2751;DHT22;1383;48.362;10.908;2023-12-29T13:57:10;11.80;47.40
2751;DHT22;1383;48.362;10.908;2023-12-29T13:59:37;11.80;47.50
2751;DHT22;1383;48.362;10.908;2023-12-29T14:04:50;11.80;47.10
2751;DHT22;1383;48.362;10.908;2023-12-29T14:07:20;11.80;46.80
2751;DHT22;1383;48.362;10.908;2023-12-29T14:09:54;11.80;46.80
2751;DHT22;1383;48.362;10.908;2023-12-29T14:12:25;11.80;46.60
2751;DHT22;1383;48.362;10.908;2023-12-29T14:14:54;11.80;46.80
2751;DHT22;1383;48.362;10.908;2023-12-29T14:17:22;11.70;46.70
2751;DHT22;1383;48.362;10.908;2023-12-29T14:19:49;11.60;46.30
2751;DHT22;1383;48.362;10.908;2023-12-29T14:22:22;11.60;46.40
2751;DHT22;1383;48.362;10.908;2023-12-29T14:25:03;11.60;46.50
2751;DHT22;1383;48.362;10.908;2023-12-29T14:27:31;11.60;46.30
2751;DHT22;1383;48.362;10.908;2023-12-29T14:29:58;11.50;46.30
2751;DHT22;1383;48.362;10.908;2023-12-29T14:32:26;11.50;46.60
2751;DHT22;1383;48.362;10.908;2023-12-29T14:34:55;11.40;46.70
2751;DHT22;1383;48.362;10.908;2023-12-29T14:37:23;11.40;46.60
2751;DHT22;1383;48.362;10.908;2023-12-29T14:39:50;11.40;46.70
2751;DHT22;1383;48.362;10.908;2023-12-29T14:42:17;11.30;47.00
2751;DHT22;1383;48.362;10.908;2023-12-29T14:44:47;11.30;47.10
2751;DHT22;1383;48.362;10.908;2023-12-29T14:47:16;11.30;47.20
2751;DHT22;1383;48.362;10.908;2023-12-29T14:49:43;11.30;47.00
2751;DHT22;1383;48.362;10.908;2023-12-29T14:52:11;11.30;47.40
2751;DHT22;1383;48.362;10.908;2023-12-29T14:54:38;11.20;47.50
2751;DHT22;1383;48.362;10.908;2023-12-29T14:57:07;11.20;47.90
2751;DHT22;1383;48.362;10.908;2023-12-29T14:59:41;11.20;47.90
2751;DHT22;1383;48.362;10.908;2023-12-29T15:02:08;11.10;48.00
2751;DHT22;1383;48.362;10.908;2023-12-29T15:04:38;11.10;48.10
2751;DHT22;1383;48.362;10.908;2023-12-29T15:07:37;11.10;48.20
2751;DHT22;1383;48.362;10.908;2023-12-29T15:11:02;11.10;48.60
2751;DHT22;1383;48.362;10.908;2023-12-29T15:13:43;11.10;48.60
2751;DHT22;1383;48.362;10.908;2023-12-29T15:17:06;11.00;48.80
2751;DHT22;1383;48.362;10.908;2023-12-29T15:20:09;11.00;49.30
2751;DHT22;1383;48.362;10.908;2023-12-29T15:22:36;11.00;49.40
2751;DHT22;1383;48.362;10.908;2023-12-29T15:25:03;10.90;49.70
2751;DHT22;1383;48.362;10.908;2023-12-29T15:27:30;10.90;49.70
2751;DHT22;1383;48.362;10.908;2023-12-29T15:29:57;10.90;49.90
2751;DHT22;1383;48.362;10.908;2023-12-29T15:32:24;10.80;50.00
2751;DHT22;1383;48.362;10.908;2023-12-29T15:34:51;10.80;50.30
2751;DHT22;1383;48.362;10.908;2023-12-29T15:37:18;10.80;50.20
2751;DHT22;1383;48.362;10.908;2023-12-29T15:39:48;10.80;50.50
2751;DHT22;1383;48.362;10.908;2023-12-29T15:42:15;10.70;50.60
2751;DHT22;1383;48.362;10.908;2023-12-29T15:44:42;10.70;50.80
2751;DHT22;1383;48.362;10.908;2023-12-29T15:47:09;10.70;51.10
2751;DHT22;1383;48.362;10.908;2023-12-29T15:49:37;10.70;51.40
2751;DHT22;1383;48.362;10.908;2023-12-29T15:52:05;10.60;51.50
2751;DHT22;1383;48.362;10.908;2023-12-29T15:54:32;10.60;51.90
2751;DHT22;1383;48.362;10.908;2023-12-29T15:56:59;10.60;51.90
2751;DHT22;1383;48.362;10.908;2023-12-29T15:59:26;10.60;52.00
2751;DHT22;1383;48.362;10.908;2023-12-29T16:01:54;10.50;52.30
2751;DHT22;1383;48.362;10.908;2023-12-29T16:04:20;10.50;52.30
2751;DHT22;1383;48.362;10.908;2023-12-29T16:06:47;10.60;52.50
2751;DHT22;1383;48.362;10.908;2023-12-29T16:09:15;10.50;52.50
2751;DHT22;1383;48.362;10.908;2023-12-29T16:11:41;10.40;52.40
2751;DHT22;1383;48.362;10.908;2023-12-29T16:14:08;10.40;52.70
2751;DHT22;1383;48.362;10.908;2023-12-29T16:16:38;10.40;53.00
2751;DHT22;1383;48.362;10.908;2023-12-29T16:19:05;10.40;53.10
2751;DHT22;1383;48.362;10.908;2023-12-29T16:21:39;10.40;53.20